Time;durP1;ratioP1;P1;durP2;ratioP2;P2;SDS_P1;SDS_P2;PMS_P1;PMS_P2;Temp;Humidity;BMP_temperature;BMP_pressure;BME280_temperature;BME280_humidity;BME280_pressure;Samples;Min_cycle;Max_cycle;Signal;HPM_P1;HPM_P2
2021/12/03 00:00:50;;;;;;;23.40;9.25;;;3.00;91.20;;;;;;5047040;28;20036;-86
2021/12/03 00:03:16;;;;;;;19.52;9.43;;;2.90;91.20;;;;;;5042556;28;20036;-86
2021/12/03 00:05:42;;;;;;;20.70;8.52;;;2.90;91.20;;;;;;5051003;28;20498;-87
2021/12/03 00:08:08;;;;;;;25.23;8.95;;;2.90;91.30;;;;;;5070090;28;20073;-90
2021/12/03 00:10:36;;;;;;;19.67;9.07;;;2.90;91.30;;;;;;5072116;28;20048;-87
2021/12/03 00:13:04;;;;;;;19.65;9.27;;;2.80;91.30;;;;;;5063134;28;20036;-86
2021/12/03 00:15:30;;;;;;;21.73;8.68;;;2.80;91.30;;;;;;5057409;28;20037;-86
2021/12/03 00:17:56;;;;;;;21.00;8.25;;;2.80;91.40;;;;;;5053421;28;20040;-87
2021/12/03 00:20:24;;;;;;;19.27;8.98;;;2.80;91.30;;;;;;5047792;28;20037;-87
2021/12/03 00:22:52;;;;;;;26.00;8.93;;;2.80;91.30;;;;;;5045592;28;20033;-86
2021/12/03 00:25:18;;;;;;;17.60;7.63;;;2.70;91.30;;;;;;5055924;28;20104;-87
2021/12/03 00:27:44;;;;;;;19.38;8.00;;;2.70;91.30;;;;;;5050410;28;20108;-87
2021/12/03 00:30:12;;;;;;;24.23;8.20;;;2.70;91.20;;;;;;5049986;28;20020;-87
2021/12/03 00:32:39;;;;;;;26.50;8.38;;;2.60;91.30;;;;;;5037879;28;20037;-85
2021/12/03 00:35:07;;;;;;;27.55;9.05;;;2.60;91.30;;;;;;5049459;28;20033;-85
2021/12/03 00:37:33;;;;;;;28.55;8.55;;;2.60;91.40;;;;;;5051685;28;20079;-84
2021/12/03 00:39:59;;;;;;;23.67;8.25;;;2.60;91.20;;;;;;5034807;28;20026;-84
2021/12/03 00:42:26;;;;;;;23.52;7.25;;;2.60;91.10;;;;;;5033266;28;20108;-86
2021/12/03 00:44:55;;;;;;;19.95;7.07;;;2.60;91.10;;;;;;5019962;28;20022;-84
2021/12/03 00:47:24;;;;;;;20.30;6.53;;;2.50;91.00;;;;;;5038571;28;20527;-85
2021/12/03 00:49:50;;;;;;;22.58;6.32;;;2.50;91.00;;;;;;5022751;28;20025;-86
2021/12/03 00:52:16;;;;;;;20.63;6.18;;;2.50;90.90;;;;;;5032800;28;20034;-86
2021/12/03 00:54:42;;;;;;;17.13;6.07;;;2.50;90.90;;;;;;5029811;28;20548;-85
2021/12/03 00:57:08;;;;;;;22.83;7.18;;;2.40;90.80;;;;;;5029785;28;20128;-84
2021/12/03 00:59:34;;;;;;;20.55;7.57;;;2.40;90.90;;;;;;5029381;28;20400;-86
2021/12/03 01:02:01;;;;;;;23.77;8.95;;;2.40;90.90;;;;;;5026840;28;20060;-86
2021/12/03 01:04:27;;;;;;;21.95;7.70;;;2.30;91.00;;;;;;5029066;28;20045;-84
2021/12/03 01:06:53;;;;;;;20.08;7.32;;;2.40;91.00;;;;;;5035577;28;20039;-87
2021/12/03 01:09:21;;;;;;;20.73;7.38;;;2.30;91.00;;;;;;5049853;28;20045;-87
2021/12/03 01:11:47;;;;;;;22.27;7.57;;;2.30;91.00;;;;;;5050087;28;20045;-87
2021/12/03 01:14:14;;;;;;;18.67;6.60;;;2.40;91.00;;;;;;5049528;28;20492;-87
2021/12/03 01:16:39;;;;;;;26.10;6.47;;;2.30;90.90;;;;;;5052518;28;20037;-86
2021/12/03 01:19:05;;;;;;;19.77;6.47;;;2.30;90.80;;;;;;5052145;28;20033;-85
2021/12/03 01:21:31;;;;;;;22.20;6.65;;;2.20;90.80;;;;;;5052973;28;20170;-87
2021/12/03 01:23:57;;;;;;;22.95;7.13;;;2.30;90.80;;;;;;5051720;28;20033;-89
2021/12/03 01:26:24;;;;;;;25.60;6.93;;;2.20;90.80;;;;;;5043123;28;20105;-89
2021/12/03 01:28:50;;;;;;;21.40;6.95;;;2.30;90.80;;;;;;5052617;28;20085;-90
2021/12/03 01:31:17;;;;;;;20.95;7.03;;;2.30;90.60;;;;;;5052244;28;20056;-91
2021/12/03 01:33:45;;;;;;;24.58;7.15;;;2.30;90.60;;;;;;5071620;28;20021;-92
2021/12/03 01:36:11;;;;;;;20.83;6.35;;;2.30;90.50;;;;;;5082965;28;20021;-89
2021/12/03 01:38:36;;;;;;;21.40;6.70;;;2.30;90.60;;;;;;5047992;28;20047;-87
2021/12/03 01:41:03;;;;;;;19.00;6.82;;;2.30;90.60;;;;;;5047500;28;20037;-85
2021/12/03 01:43:29;;;;;;;16.33;6.28;;;2.30;90.50;;;;;;5063664;28;20037;-87
2021/12/03 01:46:00;;;;;;;25.75;6.22;;;2.40;90.40;;;;;;5051700;28;20090;-87
2021/12/03 01:48:26;;;;;;;18.98;6.22;;;2.40;90.30;;;;;;5036808;28;20087;-86
2021/12/03 01:50:53;;;;;;;22.05;7.22;;;2.40;90.20;;;;;;5046594;28;20041;-86
2021/12/03 01:53:23;;;;;;;17.67;6.18;;;2.40;90.20;;;;;;5052085;28;20044;-87
2021/12/03 01:55:50;;;;;;;21.02;6.15;;;2.50;90.10;;;;;;5049038;28;20057;-88
2021/12/03 01:58:16;;;;;;;21.73;6.28;;;2.60;89.90;;;;;;5048542;28;20464;-88
2021/12/03 02:00:53;;;;;;;16.58;6.10;;;2.60;89.70;;;;;;5052880;28;20048;-86
2021/12/03 02:03:24;;;;;;;24.30;7.13;;;2.60;89.50;;;;;;5039429;28;20053;-85
2021/12/03 02:05:51;;;;;;;15.90;5.90;;;2.60;89.50;;;;;;5049938;28;20028;-86
2021/12/03 02:08:17;;;;;;;14.55;6.38;;;2.60;89.60;;;;;;5047051;28;20044;-86
2021/12/03 02:10:44;;;;;;;14.88;5.50;;;2.60;89.50;;;;;;5050157;28;20076;-86
2021/12/03 02:13:11;;;;;;;17.95;6.57;;;2.50;89.50;;;;;;5048255;28;20082;-87
2021/12/03 02:15:37;;;;;;;21.92;6.43;;;2.60;89.50;;;;;;5047559;28;20102;-88
2021/12/03 02:18:04;;;;;;;18.00;6.10;;;2.60;89.40;;;;;;5048883;28;20053;-87
2021/12/03 02:20:31;;;;;;;16.77;5.97;;;2.60;89.10;;;;;;5046312;28;20095;-86
2021/12/03 02:22:58;;;;;;;20.23;5.93;;;2.60;88.90;;;;;;5050795;28;20068;-87
2021/12/03 02:25:26;;;;;;;15.45;5.13;;;2.60;88.60;;;;;;5048604;28;20048;-87
2021/12/03 02:27:55;;;;;;;17.48;4.95;;;2.60;88.40;;;;;;5046405;28;20041;-87
2021/12/03 02:30:21;;;;;;;17.60;5.10;;;2.60;88.10;;;;;;5044227;28;20476;-86
2021/12/03 02:32:49;;;;;;;16.65;4.40;;;2.50;88.00;;;;;;5045848;28;20032;-86
2021/12/03 02:35:16;;;;;;;15.55;4.60;;;2.40;88.10;;;;;;5052170;28;20048;-86
2021/12/03 02:37:42;;;;;;;18.65;4.85;;;2.50;87.90;;;;;;5049494;28;20029;-87
2021/12/03 02:40:09;;;;;;;20.10;5.40;;;2.40;87.70;;;;;;5041215;28;20383;-88
2021/12/03 02:42:35;;;;;;;14.48;5.47;;;2.40;87.80;;;;;;5054001;28;20073;-87
2021/12/03 02:45:03;;;;;;;15.85;5.30;;;2.30;87.80;;;;;;5047643;28;20115;-87
2021/12/03 02:47:28;;;;;;;17.58;5.53;;;2.30;87.60;;;;;;5043341;28;20485;-87
2021/12/03 02:49:54;;;;;;;15.07;5.53;;;2.30;87.60;;;;;;5047962;28;20057;-87
2021/12/03 02:52:20;;;;;;;13.60;5.70;;;2.20;87.70;;;;;;5044496;28;20449;-91
2021/12/03 02:54:46;;;;;;;10.73;4.90;;;2.20;87.70;;;;;;5047031;28;20030;-88
2021/12/03 02:57:11;;;;;;;17.40;5.63;;;2.20;87.70;;;;;;5049473;28;20049;-87
2021/12/03 02:59:37;;;;;;;18.05;6.25;;;2.20;87.80;;;;;;5047649;28;20029;-88
2021/12/03 03:02:03;;;;;;;20.70;5.45;;;2.10;87.80;;;;;;5051712;28;20044;-87
2021/12/03 03:04:29;;;;;;;21.98;6.75;;;2.10;87.80;;;;;;5051955;28;20041;-87
2021/12/03 03:06:55;;;;;;;16.10;5.55;;;2.10;88.00;;;;;;5043259;28;20037;-87
2021/12/03 03:09:21;;;;;;;16.88;5.47;;;2.00;88.00;;;;;;5051490;28;20040;-88
2021/12/03 03:11:47;;;;;;;21.02;5.70;;;2.10;88.10;;;;;;5051195;28;20045;-87
2021/12/03 03:14:12;;;;;;;16.30;5.82;;;2.00;88.10;;;;;;5070067;28;20076;-87
2021/12/03 03:16:38;;;;;;;24.48;5.60;;;2.00;88.20;;;;;;5066849;28;20071;-92
2021/12/03 03:19:16;;;;;;;18.65;6.75;;;2.00;88.30;;;;;;5060346;28;20079;-87
2021/12/03 03:21:43;;;;;;;19.05;5.88;;;1.90;88.40;;;;;;5052611;28;20128;-86
2021/12/03 03:24:10;;;;;;;22.00;6.50;;;1.90;88.40;;;;;;5052625;28;20029;-86
2021/12/03 03:26:41;;;;;;;16.58;5.43;;;1.90;88.40;;;;;;5061812;28;20037;-87
2021/12/03 03:29:13;;;;;;;18.98;6.03;;;1.90;88.50;;;;;;5058641;28;20045;-87
2021/12/03 03:31:39;;;;;;;19.92;6.03;;;1.90;88.60;;;;;;5050849;28;20377;-87
2021/12/03 03:34:06;;;;;;;18.83;5.80;;;1.80;88.70;;;;;;5051131;28;21696;-87
2021/12/03 03:36:37;;;;;;;19.52;6.20;;;1.80;88.60;;;;;;5050076;28;20047;-87
2021/12/03 03:39:05;;;;;;;20.25;6.30;;;1.80;88.80;;;;;;5048505;28;20499;-86
2021/12/03 03:41:31;;;;;;;18.67;6.05;;;1.80;88.90;;;;;;5051696;28;20037;-87
2021/12/03 03:43:57;;;;;;;15.55;5.65;;;1.70;89.00;;;;;;5049030;28;20037;-86
2021/12/03 03:46:23;;;;;;;21.35;6.80;;;1.70;89.10;;;;;;5048218;28;20063;-87
2021/12/03 03:48:50;;;;;;;20.80;6.85;;;1.70;89.20;;;;;;5049826;28;20029;-87
2021/12/03 03:51:16;;;;;;;20.67;6.68;;;1.70;89.30;;;;;;5051861;28;20090;-87
2021/12/03 03:53:42;;;;;;;24.15;6.85;;;1.70;89.40;;;;;;5050066;28;20049;-87
2021/12/03 03:56:09;;;;;;;24.27;6.72;;;1.70;89.40;;;;;;5041459;28;20086;-87
2021/12/03 03:58:37;;;;;;;19.45;6.05;;;1.70;89.50;;;;;;5046127;28;20055;-87
2021/12/03 04:01:05;;;;;;;19.38;6.90;;;1.70;89.50;;;;;;5047070;28;20480;-87
2021/12/03 04:03:31;;;;;;;19.60;6.57;;;1.70;89.60;;;;;;5050915;28;20063;-88
2021/12/03 04:05:58;;;;;;;18.10;5.85;;;1.70;89.60;;;;;;5050626;28;20028;-87
2021/12/03 04:08:28;;;;;;;19.20;6.53;;;1.70;89.60;;;;;;5050186;28;20048;-87
2021/12/03 04:10:54;;;;;;;18.15;5.75;;;1.70;89.50;;;;;;5044101;28;20063;-87
2021/12/03 04:13:20;;;;;;;20.38;6.55;;;1.80;89.50;;;;;;5045787;28;20029;-87
2021/12/03 04:15:46;;;;;;;16.92;6.20;;;1.80;89.50;;;;;;5050959;28;20091;-87
2021/12/03 04:18:11;;;;;;;19.55;6.40;;;1.80;89.60;;;;;;5053042;28;20388;-87
2021/12/03 04:20:37;;;;;;;18.10;6.47;;;1.80;89.50;;;;;;5060835;28;20487;-87
2021/12/03 04:23:03;;;;;;;19.90;6.55;;;1.80;89.50;;;;;;5051317;28;20032;-87
2021/12/03 04:25:28;;;;;;;23.17;6.63;;;1.90;89.50;;;;;;5050190;28;20119;-85
2021/12/03 04:27:54;;;;;;;20.02;6.40;;;1.80;89.60;;;;;;5051018;28;20041;-87
2021/12/03 04:30:30;;;;;;;21.67;6.65;;;1.80;89.70;;;;;;5049182;28;22477;-87
2021/12/03 04:32:57;;;;;;;18.88;6.22;;;1.80;89.70;;;;;;5051780;28;20041;-86
2021/12/03 04:35:25;;;;;;;18.88;6.60;;;1.80;89.70;;;;;;5050523;28;20033;-88
2021/12/03 04:37:51;;;;;;;18.38;6.68;;;1.80;89.70;;;;;;5051451;28;20116;-87
2021/12/03 04:40:18;;;;;;;19.70;5.85;;;1.70;89.70;;;;;;5052364;28;20025;-87
2021/12/03 04:42:45;;;;;;;19.02;6.40;;;1.70;89.70;;;;;;5051066;28;20045;-87
2021/12/03 04:45:14;;;;;;;22.00;7.28;;;1.70;89.80;;;;;;5050836;28;20037;-88
2021/12/03 04:47:40;;;;;;;19.75;6.57;;;1.70;89.90;;;;;;5049808;28;20502;-87
2021/12/03 04:50:09;;;;;;;16.88;5.88;;;1.70;90.00;;;;;;5050420;28;20094;-87
2021/12/03 04:52:35;;;;;;;22.27;6.82;;;1.70;90.10;;;;;;5049813;28;20472;-87
2021/12/03 04:55:01;;;;;;;17.25;6.03;;;1.80;90.20;;;;;;5049852;28;20040;-87
2021/12/03 04:57:26;;;;;;;17.70;6.30;;;1.70;90.10;;;;;;5048087;28;20028;-88
2021/12/03 04:59:52;;;;;;;28.23;7.07;;;1.80;90.10;;;;;;5048190;28;20052;-89
2021/12/03 05:02:20;;;;;;;24.02;6.53;;;1.80;90.10;;;;;;5061223;28;20040;-87
2021/12/03 05:04:47;;;;;;;18.98;6.15;;;1.90;90.20;;;;;;5062914;28;20040;-86
2021/12/03 05:07:28;;;;;;;22.02;6.63;;;1.90;90.10;;;;;;5049572;28;20063;-88
2021/12/03 05:09:55;;;;;;;21.88;6.15;;;1.90;90.10;;;;;;5048942;28;20040;-87
2021/12/03 05:12:20;;;;;;;19.70;6.05;;;2.00;90.10;;;;;;5046803;28;20203;-86
2021/12/03 05:14:46;;;;;;;19.83;6.03;;;2.00;90.10;;;;;;5050162;28;20567;-87
2021/12/03 05:17:12;;;;;;;19.02;6.72;;;2.00;90.10;;;;;;5048410;28;20056;-88
2021/12/03 05:19:38;;;;;;;23.83;6.95;;;2.10;90.00;;;;;;5049425;28;20037;-88
2021/12/03 05:22:04;;;;;;;25.30;7.07;;;2.10;90.10;;;;;;5049736;28;20040;-88
2021/12/03 05:24:30;;;;;;;22.23;7.07;;;2.10;90.10;;;;;;5048876;28;20123;-88
2021/12/03 05:26:55;;;;;;;18.08;7.47;;;2.10;90.00;;;;;;5050523;28;20128;-88
2021/12/03 05:29:22;;;;;;;19.70;6.13;;;2.10;90.00;;;;;;5051761;28;20021;-92
2021/12/03 05:31:47;;;;;;;15.23;6.28;;;2.20;90.00;;;;;;5072049;28;20048;-91
2021/12/03 05:34:15;;;;;;;18.65;6.93;;;2.20;90.00;;;;;;5067126;28;20021;-87
2021/12/03 05:36:41;;;;;;;18.60;6.32;;;2.20;89.90;;;;;;5050864;28;20043;-87
2021/12/03 05:39:07;;;;;;;17.48;6.55;;;2.20;89.90;;;;;;5048471;28;20025;-88
2021/12/03 05:41:34;;;;;;;16.42;7.28;;;2.30;89.90;;;;;;5050284;28;20033;-88
2021/12/03 05:44:00;;;;;;;19.40;6.45;;;2.20;89.90;;;;;;5049685;28;20029;-87
2021/12/03 05:46:26;;;;;;;19.92;5.82;;;2.20;89.80;;;;;;5045733;28;20052;-88
2021/12/03 05:48:52;;;;;;;20.55;6.53;;;2.30;89.80;;;;;;5050066;28;20044;-87
2021/12/03 05:51:18;;;;;;;19.50;6.28;;;2.30;89.80;;;;;;5048077;28;20029;-87
2021/12/03 05:53:44;;;;;;;16.70;6.18;;;2.30;89.70;;;;;;5049210;28;20060;-87
2021/12/03 05:56:09;;;;;;;22.40;6.50;;;2.30;89.70;;;;;;5048274;28;20025;-87
2021/12/03 05:58:35;;;;;;;15.25;5.50;;;2.30;89.70;;;;;;5048205;28;20025;-88
2021/12/03 06:01:01;;;;;;;24.35;5.97;;;2.30;89.60;;;;;;5048714;28;20055;-90
2021/12/03 06:03:27;;;;;;;26.45;6.38;;;2.40;89.60;;;;;;5049538;28;20025;-87
2021/12/03 06:05:53;;;;;;;19.65;6.40;;;2.30;89.70;;;;;;5049097;28;20033;-86
2021/12/03 06:08:19;;;;;;;18.60;7.07;;;2.30;89.70;;;;;;5041083;28;20059;-87
2021/12/03 06:10:45;;;;;;;17.10;5.97;;;2.30;89.70;;;;;;5047168;28;20492;-87
2021/12/03 06:13:11;;;;;;;24.00;7.15;;;2.40;89.70;;;;;;5047556;28;20082;-88
2021/12/03 06:15:37;;;;;;;22.55;7.05;;;2.30;89.70;;;;;;5047715;28;20044;-89
2021/12/03 06:18:03;;;;;;;17.52;6.47;;;2.30;89.70;;;;;;5057188;28;20040;-88
2021/12/03 06:20:29;;;;;;;18.67;6.88;;;2.30;89.80;;;;;;5048994;28;20068;-91
2021/12/03 06:22:55;;;;;;;24.55;7.40;;;2.30;89.70;;;;;;5039833;28;20033;-87
2021/12/03 06:25:21;;;;;;;22.40;6.82;;;2.40;89.70;;;;;;5047876;28;20037;-87
2021/12/03 06:27:48;;;;;;;14.13;6.35;;;2.40;89.60;;;;;;5048394;28;20040;-87
2021/12/03 06:30:17;;;;;;;22.67;6.88;;;2.40;89.70;;;;;;5051640;28;20120;-86
2021/12/03 06:32:43;;;;;;;21.15;6.65;;;2.40;89.70;;;;;;5062380;28;20037;-86
2021/12/03 06:35:13;;;;;;;26.63;6.97;;;2.50;89.70;;;;;;5062256;28;20049;-86
2021/12/03 06:37:39;;;;;;;25.50;7.60;;;2.50;89.70;;;;;;5061859;28;20092;-86
2021/12/03 06:40:10;;;;;;;20.08;6.63;;;2.50;89.50;;;;;;5064923;28;20052;-86
2021/12/03 06:42:36;;;;;;;18.20;7.53;;;2.60;89.50;;;;;;5050373;28;20033;-87
2021/12/03 06:45:05;;;;;;;20.98;7.15;;;2.60;89.50;;;;;;5051500;28;20025;-87
2021/12/03 06:47:31;;;;;;;20.33;6.63;;;2.60;89.60;;;;;;5049691;28;20029;-87
2021/12/03 06:49:57;;;;;;;24.60;8.18;;;2.50;89.50;;;;;;5049156;28;20029;-87
2021/12/03 06:52:24;;;;;;;19.67;7.95;;;2.60;89.60;;;;;;5038397;28;20044;-87
2021/12/03 06:54:56;;;;;;;24.23;7.65;;;2.60;89.50;;;;;;5048988;28;20052;-90
2021/12/03 06:57:22;;;;;;;19.10;8.15;;;2.60;89.50;;;;;;5046405;28;20457;-86
2021/12/03 06:59:47;;;;;;;19.10;7.25;;;2.60;89.50;;;;;;5048258;28;20108;-87
2021/12/03 07:02:17;;;;;;;18.83;7.30;;;2.60;89.50;;;;;;5047617;28;20032;-87
2021/12/03 07:04:44;;;;;;;17.63;7.43;;;2.60;89.50;;;;;;5043516;28;20043;-87
2021/12/03 07:07:10;;;;;;;25.52;7.95;;;2.60;89.60;;;;;;5046417;28;20381;-87
2021/12/03 07:09:35;;;;;;;18.00;7.30;;;2.70;89.60;;;;;;5048484;28;20045;-86
2021/12/03 07:12:01;;;;;;;20.45;7.78;;;2.60;89.70;;;;;;5042573;28;20051;-86
2021/12/03 07:14:27;;;;;;;20.60;7.22;;;2.70;89.60;;;;;;5043152;28;20056;-87
2021/12/03 07:16:53;;;;;;;19.42;7.78;;;2.70;89.70;;;;;;5046708;28;20583;-88
2021/12/03 07:19:19;;;;;;;18.30;7.32;;;2.70;89.70;;;;;;5047457;28;20112;-86
2021/12/03 07:21:44;;;;;;;19.25;7.63;;;2.70;89.70;;;;;;5059466;28;20094;-87
2021/12/03 07:24:10;;;;;;;20.02;7.07;;;2.70;89.70;;;;;;5046455;28;20029;-87
2021/12/03 07:26:36;;;;;;;18.45;7.20;;;2.70;89.70;;;;;;5047035;28;20029;-86
2021/12/03 07:29:02;;;;;;;16.73;7.00;;;2.70;89.60;;;;;;5046251;28;20468;-88
2021/12/03 07:31:28;;;;;;;21.52;7.05;;;2.70;89.70;;;;;;5043896;28;20087;-89
2021/12/03 07:33:55;;;;;;;18.52;7.40;;;2.70;89.60;;;;;;5029722;28;20041;-87
2021/12/03 07:36:21;;;;;;;19.33;7.53;;;2.70;89.60;;;;;;5047380;28;20140;-87
2021/12/03 07:38:47;;;;;;;17.40;6.70;;;2.70;89.70;;;;;;5045396;28;20115;-81
2021/12/03 07:41:13;;;;;;;16.25;6.45;;;2.80;89.60;;;;;;5046751;28;20119;-81
2021/12/03 07:43:39;;;;;;;20.70;7.13;;;2.80;89.50;;;;;;5047911;28;20399;-81
2021/12/03 07:46:05;;;;;;;19.63;6.63;;;2.80;89.40;;;;;;5046090;28;20034;-82
2021/12/03 07:48:30;;;;;;;16.77;6.60;;;2.80;89.60;;;;;;5051013;28;20484;-83
2021/12/03 07:50:57;;;;;;;19.35;7.13;;;2.90;89.50;;;;;;5048841;28;20043;-82
2021/12/03 07:53:23;;;;;;;18.10;7.70;;;2.90;89.50;;;;;;5050448;28;20411;-82
2021/12/03 07:55:50;;;;;;;19.88;8.35;;;3.00;89.40;;;;;;5051778;28;20037;-82
2021/12/03 07:58:17;;;;;;;19.40;6.90;;;3.00;89.40;;;;;;5052135;28;20036;-82
2021/12/03 08:00:44;;;;;;;18.77;7.20;;;3.10;89.30;;;;;;5049813;28;20041;-82
2021/12/03 08:03:11;;;;;;;15.43;6.35;;;3.10;89.30;;;;;;5051936;28;20044;-82
2021/12/03 08:05:36;;;;;;;19.83;7.22;;;3.10;89.30;;;;;;5066584;28;20049;-83
2021/12/03 08:08:03;;;;;;;24.27;7.05;;;3.10;89.20;;;;;;5061396;28;20479;-81
2021/12/03 08:10:28;;;;;;;19.55;6.47;;;3.10;89.10;;;;;;5053639;28;20037;-83
2021/12/03 08:12:54;;;;;;;18.85;7.05;;;3.20;89.10;;;;;;5049294;28;20045;-83
2021/12/03 08:15:20;;;;;;;19.33;6.45;;;3.30;88.80;;;;;;5049649;28;20033;-82
2021/12/03 08:17:51;;;;;;;17.73;6.85;;;3.30;88.80;;;;;;5052399;28;20037;-83
2021/12/03 08:20:17;;;;;;;15.73;7.22;;;3.30;88.90;;;;;;5046970;28;20037;-81
2021/12/03 08:22:43;;;;;;;18.98;7.70;;;3.40;88.90;;;;;;5047636;28;20037;-83
2021/12/03 08:25:10;;;;;;;21.88;8.18;;;3.40;88.60;;;;;;5049562;28;20045;-81
2021/12/03 08:27:36;;;;;;;21.65;7.00;;;3.40;88.70;;;;;;5050004;28;20032;-81
2021/12/03 08:30:04;;;;;;;18.08;6.53;;;3.50;88.70;;;;;;5043780;28;20029;-81
2021/12/03 08:32:30;;;;;;;14.35;6.55;;;3.50;88.60;;;;;;5043929;28;20480;-81
2021/12/03 08:34:56;;;;;;;15.07;6.15;;;3.60;88.60;;;;;;5047941;28;20131;-81
2021/12/03 08:37:22;;;;;;;19.60;7.30;;;3.60;88.40;;;;;;5049164;28;20030;-81
2021/12/03 08:39:47;;;;;;;16.15;6.22;;;3.60;88.30;;;;;;5050927;28;20029;-81
2021/12/03 08:42:13;;;;;;;16.20;6.60;;;3.60;88.20;;;;;;5039404;28;20091;-81
2021/12/03 08:44:40;;;;;;;22.98;8.07;;;3.60;88.10;;;;;;5046414;28;20112;-82
2021/12/03 08:47:07;;;;;;;16.67;7.15;;;3.60;88.20;;;;;;5045695;28;20032;-81
2021/12/03 08:49:45;;;;;;;18.85;7.30;;;3.60;88.10;;;;;;5048147;28;20029;-82
2021/12/03 08:54:56;;;;;;;18.05;7.22;;;3.70;88.10;;;;;;5064166;28;20025;-80
2021/12/03 08:57:31;;;;;;;17.77;7.43;;;3.70;88.30;;;;;;5060001;28;20033;-81
2021/12/03 09:00:10;;;;;;;18.20;6.75;;;3.80;88.10;;;;;;5043069;28;20116;-82
2021/12/03 09:02:36;;;;;;;14.57;6.78;;;3.80;87.80;;;;;;5046493;28;20391;-81
2021/12/03 09:05:03;;;;;;;16.30;7.18;;;3.90;87.60;;;;;;5047686;28;20119;-79
2021/12/03 09:07:28;;;;;;;16.42;7.53;;;3.90;87.60;;;;;;5042177;28;20037;-82
2021/12/03 09:09:54;;;;;;;16.83;7.13;;;4.00;87.50;;;;;;5049581;28;20056;-81
2021/12/03 09:12:20;;;;;;;19.25;7.75;;;4.10;87.40;;;;;;5047032;28;20048;-81
2021/12/03 09:14:54;;;;;;;17.17;7.15;;;4.10;87.30;;;;;;5046870;28;20388;-80
2021/12/03 09:25:04;;;;;;;17.30;6.50;;;4.10;87.00;;;;;;5038005;28;20028;-81
2021/12/03 09:27:29;;;;;;;14.80;6.78;;;4.20;86.80;;;;;;5040648;28;20130;-82
2021/12/03 09:29:56;;;;;;;15.73;7.40;;;4.30;86.60;;;;;;5047160;28;20403;-81
2021/12/03 09:32:27;;;;;;;15.15;6.07;;;4.20;86.30;;;;;;5048046;28;20559;-81
2021/12/03 09:34:53;;;;;;;16.15;6.72;;;4.20;86.30;;;;;;5049240;28;20033;-81
2021/12/03 09:37:19;;;;;;;16.08;6.38;;;4.30;86.30;;;;;;5047234;28;20029;-81
2021/12/03 09:39:45;;;;;;;14.82;6.40;;;4.40;86.30;;;;;;5048986;28;20029;-82
2021/12/03 09:42:14;;;;;;;17.02;7.32;;;4.40;85.90;;;;;;5048745;28;20124;-81
2021/12/03 09:44:43;;;;;;;16.83;6.95;;;4.40;86.00;;;;;;5049216;28;20035;-81
2021/12/03 09:47:09;;;;;;;14.57;6.60;;;4.40;85.60;;;;;;5048335;28;20033;-82
2021/12/03 09:49:37;;;;;;;18.10;6.60;;;4.40;85.60;;;;;;5044805;28;20041;-80
2021/12/03 09:52:24;;;;;;;14.07;6.60;;;4.50;85.30;;;;;;5047520;28;20568;-81
2021/12/03 09:54:59;;;;;;;12.35;6.97;;;4.50;85.10;;;;;;5049737;28;20120;-82
2021/12/03 10:00:22;;;;;;;13.50;6.93;;;4.50;84.90;;;;;;5041263;28;20440;-82
2021/12/03 10:16:08;;;;;;;13.27;5.97;;;4.70;83.80;;;;;;5045641;28;20029;-81
2021/12/03 10:18:51;;;;;;;15.48;6.40;;;4.70;83.90;;;;;;5048381;28;20068;-81
2021/12/03 10:27:33;;;;;;;14.65;5.57;;;4.80;84.00;;;;;;5048483;28;20083;-81
2021/12/03 10:41:25;;;;;;;12.38;5.65;;;4.80;84.40;;;;;;5044024;28;20044;-81
2021/12/03 10:44:21;;;;;;;13.07;5.68;;;4.90;84.50;;;;;;5043306;28;20033;-81
2021/12/03 10:46:49;;;;;;;11.57;5.25;;;4.90;84.30;;;;;;5044861;28;20029;-82
2021/12/03 10:49:41;;;;;;;8.60;4.82;;;5.00;84.40;;;;;;5044959;28;20041;-81
2021/12/03 10:54:59;;;;;;;11.93;5.38;;;5.00;84.30;;;;;;5047593;28;20029;-81
2021/12/03 11:10:56;;;;;;;12.48;5.93;;;4.70;87.10;;;;;;5047427;28;20043;-81
2021/12/03 13:42:13;;;;;;;8.73;5.82;;;4.70;92.00;;;;;;5049617;28;20535;-80
2021/12/03 14:56:11;;;;;;;10.70;8.05;;;4.80;91.80;;;;;;5051865;28;20204;-81
2021/12/03 14:58:55;;;;;;;11.15;7.90;;;4.90;91.80;;;;;;5047046;28;20107;-80
2021/12/03 15:01:45;;;;;;;12.45;8.73;;;4.90;92.00;;;;;;5052648;28;23317;-81
2021/12/03 15:06:44;;;;;;;10.93;7.88;;;4.80;92.10;;;;;;5047301;28;20037;-80
2021/12/03 15:09:33;;;;;;;11.40;8.30;;;4.80;92.20;;;;;;5050407;28;20738;-81
2021/12/03 15:14:59;;;;;;;13.15;10.00;;;4.80;92.30;;;;;;5049518;28;20425;-81
2021/12/03 15:32:59;;;;;;;14.77;11.48;;;4.80;92.70;;;;;;5049819;28;20519;-82
2021/12/03 16:08:19;;;;;;;15.32;13.15;;;4.80;93.00;;;;;;5050110;28;20741;-81
2021/12/03 16:11:12;;;;;;;15.75;13.93;;;4.70;93.00;;;;;;5045376;28;20374;-80
2021/12/03 16:45:48;;;;;;;18.92;15.13;;;4.80;92.80;;;;;;5048170;28;20032;-79
2021/12/03 16:49:08;;;;;;;17.85;15.95;;;4.80;92.90;;;;;;5031921;28;20034;-82
2021/12/03 16:53:38;;;;;;;;;;;4.80;92.80;;;;;;5026270;28;20116;-80
2021/12/03 16:58:29;;;;;;;19.58;16.02;;;4.80;92.80;;;;;;5029190;28;20484;-80
2021/12/03 17:01:07;;;;;;;19.02;16.50;;;4.80;92.80;;;;;;5042906;28;20033;-79
2021/12/03 17:09:55;;;;;;;19.70;16.75;;;4.70;92.80;;;;;;5045441;28;20159;-85
2021/12/03 17:49:37;;;;;;;26.65;22.23;;;4.70;93.00;;;;;;5047383;28;20029;-86
2021/12/03 17:52:19;;;;;;;25.40;21.88;;;4.70;93.00;;;;;;5045393;28;20463;-84
2021/12/03 18:00:20;;;;;;;25.65;21.10;;;4.70;93.10;;;;;;5044769;28;20152;-85
2021/12/03 18:02:49;;;;;;;25.65;21.98;;;4.80;93.00;;;;;;5046286;28;20044;-85
2021/12/03 18:05:54;;;;;;;26.67;22.20;;;4.70;93.00;;;;;;5043807;28;20487;-86
2021/12/03 18:08:25;;;;;;;28.23;23.23;;;4.80;93.10;;;;;;5046531;28;20037;-85
2021/12/03 18:19:32;;;;;;;25.58;21.05;;;4.80;93.20;;;;;;5045226;28;20113;-86
2021/12/03 18:44:03;;;;;;;29.17;23.52;;;4.90;93.30;;;;;;5047247;28;20052;-86
2021/12/03 18:54:35;;;;;;;29.52;24.60;;;4.90;93.30;;;;;;5046575;28;20112;-87
2021/12/03 18:57:09;;;;;;;32.03;25.63;;;4.90;93.40;;;;;;5046622;28;20029;-85
2021/12/03 18:59:50;;;;;;;34.42;26.02;;;5.00;93.30;;;;;;5045288;28;20051;-86
2021/12/03 19:02:16;;;;;;;36.53;26.30;;;4.90;93.40;;;;;;5046667;28;20029;-87
2021/12/03 19:04:57;;;;;;;36.53;26.48;;;4.90;93.30;;;;;;5051046;28;20443;-86
2021/12/03 19:07:32;;;;;;;35.17;27.02;;;5.00;93.30;;;;;;5049409;28;20037;-86
2021/12/03 19:12:40;;;;;;;36.72;27.83;;;5.00;93.30;;;;;;4659156;26;20050;-72
2021/12/03 19:15:06;;;;;;;35.78;26.63;;;5.00;93.30;;;;;;5020991;28;20033;-71
2021/12/03 19:17:37;;;;;;;38.35;27.50;;;4.90;93.40;;;;;;5024845;28;20041;-72
2021/12/03 19:20:05;;;;;;;33.05;25.63;;;5.00;93.40;;;;;;5037386;28;20095;-72
2021/12/03 19:22:31;;;;;;;35.22;25.77;;;5.00;93.50;;;;;;5023863;28;20049;-72
2021/12/03 19:24:58;;;;;;;34.03;25.73;;;4.90;93.40;;;;;;5028892;28;20446;-73
2021/12/03 19:27:26;;;;;;;35.50;26.88;;;4.90;93.50;;;;;;5026022;28;20025;-73
2021/12/03 19:29:54;;;;;;;33.17;25.75;;;5.00;93.50;;;;;;5025269;28;20060;-72
2021/12/03 19:32:23;;;;;;;35.00;26.05;;;5.00;93.60;;;;;;5026903;28;20088;-72
2021/12/03 19:34:49;;;;;;;33.13;24.63;;;5.00;93.50;;;;;;5026284;28;20049;-72
2021/12/03 19:37:16;;;;;;;30.23;24.95;;;5.00;93.60;;;;;;5024930;28;20673;-73
2021/12/03 19:39:42;;;;;;;34.40;25.48;;;5.00;93.50;;;;;;5025775;28;20524;-71
2021/12/03 19:42:12;;;;;;;33.22;25.67;;;5.00;93.50;;;;;;5029671;28;20116;-72
2021/12/03 19:44:43;;;;;;;33.83;25.65;;;5.00;93.50;;;;;;5028854;28;20034;-71
2021/12/03 19:47:10;;;;;;;34.22;26.08;;;5.00;93.50;;;;;;5029620;28;20049;-72
2021/12/03 19:52:10;;;;;;;32.55;25.20;;;5.10;93.50;;;;;;5030241;28;20099;-71
2021/12/03 19:54:36;;;;;;;35.10;26.23;;;5.00;93.60;;;;;;5028722;28;20026;-73
2021/12/03 19:57:02;;;;;;;37.38;27.42;;;5.00;93.60;;;;;;5027916;28;20048;-71
2021/12/03 19:59:28;;;;;;;36.65;28.58;;;5.00;93.60;;;;;;5028174;28;20507;-72
2021/12/03 20:01:56;;;;;;;37.13;28.17;;;5.00;93.70;;;;;;5030313;28;20536;-71
2021/12/03 20:04:22;;;;;;;38.83;28.27;;;5.00;93.60;;;;;;5027910;28;20353;-72
2021/12/03 20:06:48;;;;;;;35.90;26.77;;;5.00;93.70;;;;;;5024245;28;20117;-73
2021/12/03 20:09:28;;;;;;;39.55;27.85;;;5.00;93.70;;;;;;5027495;28;20029;-71
2021/12/03 20:11:57;;;;;;;38.78;31.20;;;5.00;93.70;;;;;;5025371;28;20141;-72
2021/12/03 20:14:24;;;;;;;43.13;31.38;;;5.00;93.70;;;;;;5024651;28;20056;-75
2021/12/03 20:17:00;;;;;;;41.10;30.55;;;5.00;93.70;;;;;;5026149;28;20033;-74
2021/12/03 20:27:22;;;;;;;45.70;32.70;;;5.10;93.80;;;;;;5029387;28;20033;-75
2021/12/03 20:29:54;;;;;;;46.50;33.60;;;5.00;93.80;;;;;;5029330;28;20491;-71
2021/12/03 20:35:07;;;;;;;41.53;30.67;;;5.10;93.80;;;;;;5029441;28;20042;-75
2021/12/03 20:37:44;;;;;;;43.22;31.65;;;5.10;93.80;;;;;;5027225;28;20036;-71
2021/12/03 20:40:16;;;;;;;42.90;31.23;;;5.10;93.80;;;;;;5027164;28;20532;-71
2021/12/03 20:48:12;;;;;;;40.60;29.98;;;5.10;93.80;;;;;;5027415;28;20537;-73
2021/12/03 21:09:18;;;;;;;40.15;28.48;;;5.10;93.70;;;;;;5021538;28;20040;-72